Time;durP1;ratioP1;P1;durP2;ratioP2;P2;SDS_P1;SDS_P2;PMS_P1;PMS_P2;Temp;Humidity;BMP_temperature;BMP_pressure;BME280_temperature;BME280_humidity;BME280_pressure;Samples;Min_cycle;Max_cycle;Signal;HPM_P1;HPM_P2
2021/07/29 00:00:56;;;;;;;1.35;0.90;;;24.60;62.50;;;;;;4985585;28;20862;-65
2021/07/29 00:03:21;;;;;;;1.77;0.90;;;24.60;62.40;;;;;;4988218;28;20393;-67
2021/07/29 00:05:49;;;;;;;1.23;0.85;;;24.60;62.40;;;;;;4991308;28;20412;-64
2021/07/29 00:08:16;;;;;;;1.80;1.10;;;24.60;62.40;;;;;;5022685;28;20848;-67
2021/07/29 00:10:42;;;;;;;2.25;1.00;;;24.60;62.30;;;;;;4994945;28;20452;-66
2021/07/29 00:13:07;;;;;;;1.20;0.80;;;24.60;62.30;;;;;;4987202;28;20389;-67
2021/07/29 00:15:33;;;;;;;1.65;0.90;;;24.60;62.50;;;;;;4988389;28;20398;-67
2021/07/29 00:20:27;;;;;;;1.98;1.00;;;24.60;62.40;;;;;;4984903;28;20879;-66
2021/07/29 00:22:57;;;;;;;2.00;1.00;;;24.60;62.50;;;;;;4987882;28;20410;-67
2021/07/29 00:25:24;;;;;;;1.83;0.90;;;24.60;62.50;;;;;;4987345;28;21321;-64
2021/07/29 00:27:51;;;;;;;2.10;1.00;;;24.60;62.50;;;;;;4990032;28;20406;-66
2021/07/29 00:30:19;;;;;;;1.42;0.88;;;24.60;62.60;;;;;;4983499;28;20421;-68
2021/07/29 00:32:45;;;;;;;1.60;1.00;;;24.50;62.40;;;;;;4987083;28;20478;-63
2021/07/29 00:35:14;;;;;;;2.10;0.90;;;24.50;62.40;;;;;;4987352;28;21137;-68
2021/07/29 00:37:49;;;;;;;1.63;0.95;;;24.50;62.50;;;;;;4990505;28;20399;-67
2021/07/29 00:40:17;;;;;;;2.45;1.00;;;24.50;62.50;;;;;;4987733;28;20464;-66
2021/07/29 00:42:43;;;;;;;1.35;0.80;;;24.60;62.50;;;;;;4989752;28;20407;-68
2021/07/29 00:45:09;;;;;;;1.50;0.73;;;24.50;62.50;;;;;;4989464;28;20383;-67
2021/07/29 00:47:39;;;;;;;1.38;0.90;;;24.50;62.50;;;;;;4995775;28;20415;-68
2021/07/29 00:50:06;;;;;;;1.30;0.93;;;24.50;62.50;;;;;;4990008;28;21128;-62
2021/07/29 00:52:32;;;;;;;1.60;0.93;;;24.50;62.40;;;;;;4993859;28;20432;-67
2021/07/29 00:54:59;;;;;;;1.40;0.80;;;24.50;62.50;;;;;;4989707;28;20399;-68
2021/07/29 00:57:25;;;;;;;2.13;1.02;;;24.60;62.50;;;;;;4995079;28;20467;-66
2021/07/29 00:59:50;;;;;;;1.20;0.80;;;24.50;62.40;;;;;;4991205;28;20386;-67
2021/07/29 01:02:16;;;;;;;1.83;0.90;;;24.50;62.50;;;;;;4989710;28;20500;-67
2021/07/29 01:04:44;;;;;;;1.20;0.80;;;24.50;62.40;;;;;;4991809;28;20397;-66
2021/07/29 01:07:09;;;;;;;1.27;0.90;;;24.50;62.40;;;;;;4990620;28;20407;-68
2021/07/29 01:09:35;;;;;;;1.60;0.90;;;24.50;62.40;;;;;;4988905;28;20437;-67
2021/07/29 01:12:00;;;;;;;1.25;0.90;;;24.50;62.40;;;;;;4987119;28;20387;-68
2021/07/29 01:14:26;;;;;;;1.52;1.10;;;24.50;62.40;;;;;;4995265;28;20393;-67
2021/07/29 01:16:52;;;;;;;1.57;1.10;;;24.50;62.40;;;;;;5019911;28;20410;-66
2021/07/29 01:19:22;;;;;;;1.50;0.90;;;24.40;62.40;;;;;;4986323;28;20453;-66
2021/07/29 01:21:48;;;;;;;1.40;1.00;;;24.50;62.40;;;;;;4994297;28;20422;-62
2021/07/29 01:24:14;;;;;;;1.00;0.77;;;24.40;62.40;;;;;;4987582;28;20723;-69
2021/07/29 01:26:39;;;;;;;1.30;0.90;;;24.40;62.40;;;;;;4988755;28;20749;-64
2021/07/29 01:29:05;;;;;;;1.27;0.90;;;24.50;62.30;;;;;;5019600;28;20401;-66
2021/07/29 01:31:31;;;;;;;1.25;0.90;;;24.50;62.50;;;;;;4987356;28;20401;-63
2021/07/29 01:33:57;;;;;;;1.57;0.90;;;24.40;62.30;;;;;;4995603;28;20422;-67
2021/07/29 01:36:23;;;;;;;1.15;0.70;;;24.40;62.30;;;;;;4988161;28;21365;-68
2021/07/29 01:38:49;;;;;;;1.40;0.93;;;24.50;62.30;;;;;;4991899;28;20383;-64
2021/07/29 01:41:14;;;;;;;1.17;0.73;;;24.40;62.30;;;;;;4991842;28;20430;-67
2021/07/29 01:43:40;;;;;;;2.13;0.98;;;24.50;62.40;;;;;;4992275;28;20423;-67
2021/07/29 01:46:06;;;;;;;1.33;0.87;;;24.50;62.40;;;;;;4993895;28;20896;-66
2021/07/29 01:48:32;;;;;;;1.35;0.90;;;24.40;62.30;;;;;;4989656;28;20444;-64
2021/07/29 01:50:58;;;;;;;1.77;0.95;;;24.40;62.40;;;;;;4990794;28;20402;-66
2021/07/29 01:53:24;;;;;;;1.27;0.90;;;24.40;62.20;;;;;;4989681;28;20390;-68
2021/07/29 01:55:50;;;;;;;1.80;0.83;;;24.40;62.40;;;;;;4993404;28;20398;-66
2021/07/29 01:58:17;;;;;;;1.30;0.90;;;24.40;62.30;;;;;;4998267;28;20396;-66
2021/07/29 02:00:46;;;;;;;1.30;0.80;;;24.40;62.30;;;;;;4990421;28;20892;-63
2021/07/29 02:03:12;;;;;;;1.20;0.90;;;24.40;62.20;;;;;;4991597;28;20437;-67
2021/07/29 02:05:38;;;;;;;1.30;0.80;;;24.40;62.30;;;;;;4993393;28;20928;-67
2021/07/29 02:08:04;;;;;;;1.38;0.88;;;24.40;62.20;;;;;;4991469;28;20737;-67
2021/07/29 02:10:30;;;;;;;1.40;0.80;;;24.40;62.40;;;;;;4991938;28;20470;-67
2021/07/29 02:12:57;;;;;;;1.02;0.73;;;24.40;62.30;;;;;;4990227;28;20798;-68
2021/07/29 02:15:23;;;;;;;1.27;1.00;;;24.40;62.40;;;;;;4985747;28;20407;-64
2021/07/29 02:17:49;;;;;;;1.40;1.00;;;24.40;62.20;;;;;;4999133;28;20416;-65
2021/07/29 02:20:15;;;;;;;1.20;0.80;;;24.30;62.20;;;;;;4986629;28;20402;-64
2021/07/29 02:22:41;;;;;;;1.20;0.85;;;24.40;62.30;;;;;;4995783;28;20427;-67
2021/07/29 02:25:07;;;;;;;1.40;0.80;;;24.40;62.90;;;;;;4991986;28;20777;-67
2021/07/29 02:27:34;;;;;;;1.10;0.70;;;24.40;62.20;;;;;;4996034;28;20435;-68
2021/07/29 02:30:00;;;;;;;1.07;0.70;;;24.30;62.80;;;;;;4989997;28;20455;-63
2021/07/29 02:32:27;;;;;;;1.52;0.80;;;24.40;62.20;;;;;;4992276;28;20409;-67
2021/07/29 02:34:52;;;;;;;1.20;0.90;;;24.30;62.20;;;;;;4991485;28;20413;-67
2021/07/29 02:37:21;;;;;;;1.20;0.80;;;24.40;62.20;;;;;;4990146;28;20394;-67
2021/07/29 02:39:47;;;;;;;1.17;0.80;;;24.40;62.20;;;;;;4995248;28;20839;-68
2021/07/29 02:42:13;;;;;;;1.30;0.90;;;24.30;62.10;;;;;;4989909;28;20725;-67
2021/07/29 02:44:39;;;;;;;1.30;0.90;;;24.30;62.20;;;;;;4991189;28;21313;-67
2021/07/29 02:47:05;;;;;;;1.23;0.80;;;24.30;62.20;;;;;;4989413;28;20409;-65
2021/07/29 02:49:31;;;;;;;1.38;0.90;;;24.30;62.20;;;;;;4992659;28;20400;-64
2021/07/29 02:51:57;;;;;;;1.35;0.77;;;24.30;62.30;;;;;;4989930;28;20914;-65
2021/07/29 02:54:23;;;;;;;1.35;0.85;;;24.30;62.10;;;;;;4993750;28;20425;-65
2021/07/29 02:56:50;;;;;;;1.20;0.90;;;24.30;62.10;;;;;;4992505;28;20823;-66
2021/07/29 02:59:16;;;;;;;1.10;0.90;;;24.30;62.20;;;;;;4989077;28;20389;-66
2021/07/29 03:01:42;;;;;;;1.30;0.90;;;24.30;62.20;;;;;;4992993;28;20417;-65
2021/07/29 03:04:07;;;;;;;1.20;0.82;;;24.30;62.20;;;;;;4989599;28;20400;-66
2021/07/29 03:06:33;;;;;;;1.70;0.83;;;24.30;62.30;;;;;;4988568;28;20399;-67
2021/07/29 03:08:59;;;;;;;1.70;0.80;;;24.30;62.10;;;;;;4988573;28;20736;-68
2021/07/29 03:11:26;;;;;;;1.60;0.90;;;24.30;62.30;;;;;;5030999;28;20423;-66
2021/07/29 03:13:51;;;;;;;1.30;0.90;;;24.30;63.70;;;;;;4989604;28;20485;-67
2021/07/29 03:16:17;;;;;;;1.50;1.07;;;24.30;62.80;;;;;;4990113;28;20481;-68
2021/07/29 03:18:43;;;;;;;1.45;1.00;;;24.30;64.10;;;;;;4986338;28;20414;-67
2021/07/29 03:21:09;;;;;;;1.30;0.90;;;24.30;62.80;;;;;;4989556;28;20453;-68
2021/07/29 03:23:38;;;;;;;3.15;1.00;;;24.30;64.40;;;;;;4987800;28;20393;-65
2021/07/29 03:26:04;;;;;;;1.80;0.88;;;24.40;65.30;;;;;;4992693;28;20911;-65
2021/07/29 03:28:30;;;;;;;4.72;1.00;;;24.50;65.30;;;;;;4994409;28;20390;-63
2021/07/29 03:30:56;;;;;;;5.22;1.17;;;24.40;64.40;;;;;;4986182;28;20417;-66
2021/07/29 03:33:22;;;;;;;4.43;1.17;;;24.40;64.80;;;;;;4991885;28;20492;-65
2021/07/29 03:35:48;;;;;;;2.25;1.10;;;24.40;64.60;;;;;;4985989;28;20413;-67
2021/07/29 03:38:14;;;;;;;3.75;1.40;;;24.40;64.60;;;;;;4990690;28;20484;-66
2021/07/29 03:40:41;;;;;;;2.53;1.30;;;24.40;64.50;;;;;;4986050;28;20418;-68
2021/07/29 03:43:07;;;;;;;2.88;1.30;;;24.40;64.80;;;;;;4987377;28;20548;-68
2021/07/29 03:45:37;;;;;;;1.85;1.20;;;24.50;64.40;;;;;;4988157;28;20883;-66
2021/07/29 03:48:03;;;;;;;3.05;1.10;;;24.50;64.00;;;;;;4991043;28;21024;-62
2021/07/29 03:50:30;;;;;;;2.45;1.15;;;24.40;63.80;;;;;;4986781;28;20895;-68
2021/07/29 03:52:55;;;;;;;2.10;1.23;;;24.50;63.10;;;;;;4989199;28;20400;-66
2021/07/29 03:55:21;;;;;;;2.80;1.20;;;24.40;63.00;;;;;;4993312;28;20400;-64
2021/07/29 03:57:47;;;;;;;2.05;1.45;;;24.40;62.50;;;;;;4992439;28;20412;-67
2021/07/29 04:00:13;;;;;;;5.18;1.52;;;24.40;62.10;;;;;;4987746;28;20422;-66
2021/07/29 04:02:39;;;;;;;2.65;1.55;;;24.30;60.70;;;;;;5027496;28;20481;-63
2021/07/29 04:05:06;;;;;;;4.35;1.55;;;24.30;61.10;;;;;;4993500;28;20468;-66
2021/07/29 04:07:33;;;;;;;4.13;1.75;;;24.20;61.10;;;;;;4996108;28;20967;-67
2021/07/29 04:09:58;;;;;;;4.80;1.52;;;24.20;60.70;;;;;;4991610;28;20487;-66
2021/07/29 04:12:24;;;;;;;5.45;1.75;;;24.20;60.20;;;;;;4992281;28;20499;-62
2021/07/29 04:14:49;;;;;;;3.63;1.77;;;24.20;60.00;;;;;;4989106;28;20867;-67
2021/07/29 04:17:17;;;;;;;4.20;1.50;;;24.20;59.60;;;;;;4987748;28;20433;-66
2021/07/29 04:19:43;;;;;;;4.30;1.57;;;24.10;59.20;;;;;;4992835;28;20404;-66
2021/07/29 04:22:08;;;;;;;1.95;1.25;;;24.20;59.70;;;;;;4996479;28;20852;-67
2021/07/29 04:24:34;;;;;;;2.60;1.40;;;24.10;59.60;;;;;;4986430;28;20386;-64
2021/07/29 04:27:01;;;;;;;2.05;1.30;;;24.10;59.70;;;;;;4989656;28;20429;-64
2021/07/29 04:29:31;;;;;;;2.08;1.15;;;24.20;59.70;;;;;;4989845;28;20407;-64
2021/07/29 04:31:57;;;;;;;2.80;1.20;;;24.10;59.70;;;;;;4991034;28;20396;-62
2021/07/29 04:34:22;;;;;;;2.30;1.20;;;24.10;59.70;;;;;;5019767;28;20392;-65
2021/07/29 04:36:48;;;;;;;1.93;1.03;;;24.20;59.90;;;;;;5020482;28;20396;-65
2021/07/29 04:39:14;;;;;;;2.38;0.95;;;24.10;59.90;;;;;;4991429;28;20488;-67
2021/07/29 04:41:43;;;;;;;2.50;1.10;;;24.10;59.90;;;;;;4988638;28;20521;-66
2021/07/29 04:44:11;;;;;;;2.00;1.17;;;24.10;60.00;;;;;;4990626;28;20705;-62
2021/07/29 04:46:38;;;;;;;2.83;1.40;;;24.10;59.90;;;;;;4995118;28;20413;-67
2021/07/29 04:49:05;;;;;;;1.87;1.20;;;24.10;60.10;;;;;;4990924;28;20388;-66
2021/07/29 04:51:32;;;;;;;2.33;1.13;;;24.10;60.20;;;;;;4987068;28;20799;-67
2021/07/29 04:53:58;;;;;;;2.10;1.30;;;24.20;60.10;;;;;;4998279;28;20384;-67
2021/07/29 04:56:23;;;;;;;2.00;0.95;;;24.10;60.00;;;;;;4994046;28;20423;-66
2021/07/29 04:58:49;;;;;;;2.90;1.10;;;24.10;60.00;;;;;;4989145;28;20468;-65
2021/07/29 05:01:16;;;;;;;2.05;1.13;;;24.10;60.00;;;;;;4992785;28;20455;-66
2021/07/29 05:03:42;;;;;;;2.78;1.40;;;24.10;60.10;;;;;;4993881;28;20890;-67
2021/07/29 05:06:08;;;;;;;3.87;1.50;;;24.10;60.10;;;;;;4991343;28;20402;-66
2021/07/29 05:08:35;;;;;;;2.33;1.40;;;24.10;60.20;;;;;;4988966;28;20409;-64
2021/07/29 05:11:03;;;;;;;2.60;1.60;;;24.10;60.20;;;;;;4989816;28;20390;-66
2021/07/29 05:13:29;;;;;;;3.03;1.35;;;24.20;60.30;;;;;;4988824;28;20924;-65
2021/07/29 05:15:54;;;;;;;2.63;1.30;;;24.10;60.30;;;;;;4988979;28;20510;-63
2021/07/29 05:18:20;;;;;;;2.00;1.13;;;24.10;60.40;;;;;;5022614;28;20895;-65
2021/07/29 05:20:46;;;;;;;2.70;1.20;;;24.10;60.40;;;;;;4994210;28;20422;-66
2021/07/29 05:23:12;;;;;;;2.53;1.30;;;24.10;60.40;;;;;;4989418;28;20394;-66
2021/07/29 05:25:38;;;;;;;2.15;1.20;;;24.10;60.40;;;;;;4992501;28;20396;-65
2021/07/29 05:28:04;;;;;;;3.60;1.27;;;24.10;60.40;;;;;;4998641;28;20750;-64
2021/07/29 05:30:30;;;;;;;1.90;1.40;;;24.10;60.50;;;;;;4991283;28;20411;-67
2021/07/29 05:32:55;;;;;;;2.27;1.43;;;24.20;60.50;;;;;;4997335;28;20393;-66
2021/07/29 05:35:21;;;;;;;2.35;1.40;;;24.10;60.40;;;;;;5028054;28;20401;-66
2021/07/29 05:37:46;;;;;;;2.23;1.40;;;24.10;60.50;;;;;;4997854;28;20458;-64
2021/07/29 05:40:12;;;;;;;1.53;1.20;;;24.10;60.50;;;;;;4992117;28;20434;-64
2021/07/29 05:42:38;;;;;;;1.90;1.20;;;24.10;60.50;;;;;;4990664;28;20430;-66
2021/07/29 05:45:04;;;;;;;2.33;1.40;;;24.10;60.50;;;;;;4994263;28;20424;-66
2021/07/29 05:47:30;;;;;;;2.22;1.20;;;24.10;60.50;;;;;;4996052;28;20867;-67
2021/07/29 05:49:55;;;;;;;1.70;1.13;;;24.10;60.50;;;;;;4992863;28;20409;-67
2021/07/29 05:52:21;;;;;;;1.83;1.20;;;24.10;60.70;;;;;;4997479;28;20533;-67
2021/07/29 05:54:46;;;;;;;1.87;1.10;;;24.10;60.70;;;;;;4987925;28;20405;-64
2021/07/29 05:57:12;;;;;;;1.85;1.10;;;24.10;60.60;;;;;;4993671;28;20400;-66
2021/07/29 05:59:38;;;;;;;2.17;1.30;;;24.10;60.80;;;;;;4993871;28;21223;-67
2021/07/29 06:02:04;;;;;;;1.90;1.20;;;24.10;60.80;;;;;;4989423;28;20426;-66
2021/07/29 06:04:29;;;;;;;1.98;1.42;;;24.10;60.90;;;;;;4998001;28;20492;-67
2021/07/29 06:06:55;;;;;;;1.77;1.30;;;24.10;60.90;;;;;;4996097;28;20753;-67
2021/07/29 06:09:20;;;;;;;2.95;1.27;;;24.20;60.80;;;;;;4992236;28;20392;-66
2021/07/29 06:11:46;;;;;;;1.47;1.07;;;24.20;60.90;;;;;;4993743;28;20407;-66
2021/07/29 06:14:12;;;;;;;2.10;1.10;;;24.10;60.80;;;;;;4998612;28;20403;-63
2021/07/29 06:16:37;;;;;;;1.50;1.10;;;24.10;60.80;;;;;;4997019;28;20492;-63
2021/07/29 06:19:09;;;;;;;3.00;1.30;;;24.20;60.80;;;;;;4996176;28;20766;-66
2021/07/29 06:21:35;;;;;;;1.73;1.10;;;24.10;60.70;;;;;;4994255;28;20934;-67
2021/07/29 06:24:01;;;;;;;1.65;1.23;;;24.20;60.90;;;;;;4992907;28;20741;-67
2021/07/29 06:26:27;;;;;;;1.60;1.10;;;24.10;60.80;;;;;;4989661;28;20399;-63
2021/07/29 06:28:53;;;;;;;1.42;1.00;;;24.20;60.90;;;;;;4995601;28;21045;-63
2021/07/29 06:31:19;;;;;;;1.67;1.07;;;24.20;60.80;;;;;;4988141;28;20406;-62
2021/07/29 06:33:44;;;;;;;2.00;1.30;;;24.20;60.80;;;;;;4985510;28;20402;-66
2021/07/29 06:36:10;;;;;;;1.70;1.10;;;24.20;60.80;;;;;;4994189;28;20556;-67
2021/07/29 06:38:38;;;;;;;1.57;1.17;;;24.20;60.80;;;;;;4989931;28;20423;-66
2021/07/29 06:41:07;;;;;;;1.90;1.20;;;24.20;60.80;;;;;;4992677;28;20419;-66
2021/07/29 06:43:34;;;;;;;1.70;1.10;;;24.20;60.80;;;;;;4991984;28;20433;-62
2021/07/29 06:46:07;;;;;;;2.03;1.17;;;24.20;60.90;;;;;;4990844;28;20455;-66
2021/07/29 06:48:33;;;;;;;2.00;1.15;;;24.20;60.80;;;;;;4985754;28;20445;-66
2021/07/29 06:51:03;;;;;;;2.10;1.40;;;24.20;60.90;;;;;;4996212;28;20903;-66
2021/07/29 06:53:29;;;;;;;1.75;1.10;;;24.20;60.90;;;;;;4994556;28;20426;-66
2021/07/29 06:55:56;;;;;;;1.52;1.17;;;24.20;60.90;;;;;;4994992;28;20791;-67
2021/07/29 06:58:22;;;;;;;1.60;0.95;;;24.20;61.00;;;;;;4995096;28;21245;-63
2021/07/29 07:00:47;;;;;;;1.98;1.20;;;24.20;60.90;;;;;;4986845;28;20414;-67
2021/07/29 07:03:13;;;;;;;1.93;1.10;;;24.20;60.90;;;;;;4990735;28;20513;-66
2021/07/29 07:05:45;;;;;;;2.20;1.00;;;24.20;60.90;;;;;;4989138;28;20746;-67
2021/07/29 07:08:10;;;;;;;1.50;1.10;;;24.20;60.90;;;;;;4985090;28;20398;-66
2021/07/29 07:10:36;;;;;;;1.40;1.10;;;24.20;61.00;;;;;;4991118;28;20743;-66
2021/07/29 07:13:02;;;;;;;1.80;1.10;;;24.20;61.00;;;;;;4990457;28;20502;-64
2021/07/29 07:15:27;;;;;;;1.50;1.00;;;24.20;61.00;;;;;;4993720;28;20392;-66
2021/07/29 07:17:54;;;;;;;2.10;1.30;;;24.20;61.00;;;;;;4990473;28;20461;-67
2021/07/29 07:20:20;;;;;;;1.40;1.13;;;24.20;60.90;;;;;;4988440;28;20395;-66
2021/07/29 07:22:46;;;;;;;1.52;1.20;;;24.20;60.90;;;;;;4991253;28;20403;-66
2021/07/29 07:25:12;;;;;;;1.50;1.20;;;24.20;61.00;;;;;;4997573;28;20492;-66
2021/07/29 07:27:37;;;;;;;1.70;1.20;;;24.20;61.00;;;;;;4995647;28;20485;-67
2021/07/29 07:30:03;;;;;;;1.50;1.10;;;24.20;61.00;;;;;;4994188;28;20626;-67
2021/07/29 07:32:29;;;;;;;1.30;1.00;;;24.20;61.10;;;;;;4992420;28;20397;-67
2021/07/29 07:34:55;;;;;;;1.43;1.10;;;24.20;61.00;;;;;;4994436;28;20742;-68
2021/07/29 07:37:21;;;;;;;1.60;1.10;;;24.20;61.10;;;;;;4990270;28;20414;-67
2021/07/29 07:39:47;;;;;;;1.63;1.10;;;24.20;61.00;;;;;;4988719;28;20810;-63
2021/07/29 07:42:13;;;;;;;1.67;1.10;;;24.20;61.00;;;;;;5026771;28;20448;-67
2021/07/29 07:44:39;;;;;;;1.50;1.07;;;24.20;61.00;;;;;;4991502;28;20386;-66
2021/07/29 07:47:05;;;;;;;1.42;1.00;;;24.20;61.00;;;;;;4992855;28;20873;-67
2021/07/29 07:49:30;;;;;;;1.53;1.20;;;24.30;61.00;;;;;;4993758;28;20387;-65
2021/07/29 07:51:56;;;;;;;1.77;1.10;;;24.30;61.10;;;;;;4992150;28;20762;-62
2021/07/29 07:54:21;;;;;;;1.87;1.10;;;24.30;61.00;;;;;;4989558;28;20434;-68
2021/07/29 07:56:47;;;;;;;2.30;1.23;;;24.30;61.80;;;;;;4988502;28;20960;-68
2021/07/29 07:59:13;;;;;;;1.98;1.00;;;24.30;61.10;;;;;;4989553;28;20402;-67
2021/07/29 08:01:40;;;;;;;2.20;1.10;;;24.30;61.20;;;;;;4988261;28;20433;-67
2021/07/29 08:04:06;;;;;;;2.03;1.00;;;24.30;61.20;;;;;;4988754;28;20394;-65
2021/07/29 08:06:32;;;;;;;1.70;1.10;;;24.30;61.20;;;;;;4988705;28;20417;-63
2021/07/29 08:08:59;;;;;;;3.33;1.17;;;24.30;61.20;;;;;;4986017;28;20938;-63
2021/07/29 08:11:25;;;;;;;1.30;0.90;;;24.30;61.20;;;;;;4987077;28;20409;-67
2021/07/29 08:13:50;;;;;;;1.50;0.97;;;24.30;61.20;;;;;;4987359;28;20933;-67
2021/07/29 08:16:16;;;;;;;1.58;1.10;;;24.30;61.70;;;;;;4989340;28;20406;-64
2021/07/29 08:18:41;;;;;;;1.57;1.20;;;24.30;61.10;;;;;;4989013;28;20442;-67
2021/07/29 08:21:12;;;;;;;1.50;1.00;;;24.30;61.10;;;;;;4995176;28;20468;-67
2021/07/29 08:23:40;;;;;;;1.48;1.10;;;24.30;61.10;;;;;;4983566;28;20421;-67
2021/07/29 08:26:07;;;;;;;1.63;1.00;;;24.30;61.10;;;;;;4994203;28;20405;-67
2021/07/29 08:28:34;;;;;;;1.30;1.00;;;24.30;61.10;;;;;;4990061;28;20808;-67
2021/07/29 08:31:01;;;;;;;1.38;0.95;;;24.30;61.10;;;;;;4985967;28;20489;-65
2021/07/29 08:33:26;;;;;;;1.90;1.20;;;24.30;61.10;;;;;;4988961;28;20399;-65
2021/07/29 08:35:52;;;;;;;1.50;1.02;;;24.30;61.10;;;;;;4986383;28;21202;-66
2021/07/29 08:38:18;;;;;;;1.57;1.07;;;24.30;61.00;;;;;;4993379;28;20410;-68
2021/07/29 08:40:43;;;;;;;2.00;1.23;;;24.30;61.10;;;;;;4987158;28;20770;-67
2021/07/29 08:43:10;;;;;;;1.97;1.10;;;24.30;61.00;;;;;;4988445;28;20395;-67
2021/07/29 08:45:44;;;;;;;1.45;0.93;;;24.30;61.00;;;;;;5016517;28;20398;-65
2021/07/29 08:48:10;;;;;;;1.50;1.00;;;24.30;61.00;;;;;;4988925;28;20391;-66
2021/07/29 08:50:37;;;;;;;1.65;1.00;;;24.30;61.00;;;;;;4983998;28;21538;-64
2021/07/29 08:53:02;;;;;;;1.77;1.08;;;24.30;61.00;;;;;;4985292;28;21053;-66
2021/07/29 08:55:28;;;;;;;1.37;0.90;;;24.40;61.00;;;;;;4992540;28;21296;-65
2021/07/29 08:57:54;;;;;;;1.42;0.90;;;24.40;61.00;;;;;;4993357;28;20423;-67
2021/07/29 09:00:20;;;;;;;1.50;1.00;;;24.30;61.00;;;;;;4987163;28;20389;-67
2021/07/29 09:02:45;;;;;;;1.30;0.98;;;24.40;61.00;;;;;;4986100;28;20426;-65
2021/07/29 09:05:21;;;;;;;1.40;1.00;;;24.30;60.90;;;;;;4989751;28;20398;-64
2021/07/29 09:08:07;;;;;;;1.90;1.23;;;24.40;60.90;;;;;;4984703;28;20737;-63
2021/07/29 09:10:38;;;;;;;2.20;1.50;;;24.30;60.80;;;;;;4993322;28;20737;-62
2021/07/29 09:13:10;;;;;;;3.17;1.43;;;24.30;60.80;;;;;;4995810;28;20401;-66
2021/07/29 09:15:36;;;;;;;1.80;1.27;;;24.40;60.80;;;;;;4992368;28;20493;-66
2021/07/29 09:18:03;;;;;;;1.90;1.40;;;24.30;60.80;;;;;;4991247;28;20506;-67
2021/07/29 09:20:29;;;;;;;1.70;1.20;;;24.30;60.80;;;;;;4989152;28;20448;-67
2021/07/29 09:22:55;;;;;;;1.65;1.30;;;24.30;60.80;;;;;;4986983;28;20437;-62
2021/07/29 09:25:26;;;;;;;1.63;1.20;;;24.30;60.80;;;;;;4984308;28;20398;-67
2021/07/29 09:27:52;;;;;;;1.95;1.20;;;24.30;60.80;;;;;;4983218;28;20949;-64
2021/07/29 09:30:21;;;;;;;2.40;1.15;;;24.30;60.80;;;;;;4987225;28;21028;-64
2021/07/29 09:32:53;;;;;;;1.60;1.10;;;24.30;60.90;;;;;;4988053;28;20389;-66
2021/07/29 09:35:49;;;;;;;1.88;1.30;;;24.40;61.00;;;;;;4983634;28;20401;-67
2021/07/29 09:38:25;;;;;;;2.22;1.30;;;24.40;61.00;;;;;;4984541;28;20392;-66
2021/07/29 09:40:59;;;;;;;1.70;1.30;;;24.30;60.90;;;;;;4986095;28;20418;-66
2021/07/29 09:43:36;;;;;;;1.50;1.10;;;24.30;61.00;;;;;;4983386;28;20387;-67
2021/07/29 09:46:04;;;;;;;1.90;1.30;;;24.30;61.00;;;;;;4983707;28;21188;-68
2021/07/29 09:48:31;;;;;;;2.65;1.20;;;24.30;61.00;;;;;;4984162;28;20481;-67
2021/07/29 09:50:59;;;;;;;2.90;1.30;;;24.30;61.00;;;;;;4986817;28;20749;-65
2021/07/29 09:53:35;;;;;;;1.90;1.23;;;24.40;61.00;;;;;;4987737;28;20403;-68
2021/07/29 09:56:07;;;;;;;2.35;1.20;;;24.40;61.10;;;;;;4984903;28;20390;-63
2021/07/29 09:58:35;;;;;;;2.40;1.52;;;24.40;61.00;;;;;;4986001;28;20399;-67
2021/07/29 10:01:02;;;;;;;2.00;1.50;;;24.40;61.00;;;;;;4986465;28;20406;-65
2021/07/29 10:03:30;;;;;;;1.98;1.50;;;24.40;60.90;;;;;;4985645;28;20395;-64
2021/07/29 10:06:01;;;;;;;1.98;1.40;;;24.30;60.90;;;;;;4985088;28;20874;-67
2021/07/29 10:08:31;;;;;;;2.70;1.60;;;24.30;60.90;;;;;;4993035;28;20417;-65
2021/07/29 10:10:59;;;;;;;2.53;1.33;;;24.30;61.00;;;;;;4987582;28;20394;-67
2021/07/29 10:13:36;;;;;;;2.25;1.50;;;24.30;61.00;;;;;;4990224;28;20402;-67
2021/07/29 10:16:02;;;;;;;1.85;1.50;;;24.30;61.00;;;;;;4988078;28;20429;-67
2021/07/29 10:18:50;;;;;;;1.73;1.30;;;24.40;61.10;;;;;;4989814;28;20499;-66
2021/07/29 10:21:31;;;;;;;1.85;1.33;;;24.30;61.00;;;;;;4991964;28;20849;-67
2021/07/29 10:24:01;;;;;;;1.60;1.33;;;24.40;61.10;;;;;;4988632;28;20481;-66
2021/07/29 10:26:35;;;;;;;2.40;1.55;;;24.30;61.10;;;;;;4992614;28;20832;-66
2021/07/29 10:29:19;;;;;;;2.28;1.50;;;24.30;61.10;;;;;;5025195;28;20420;-64
2021/07/29 10:31:49;;;;;;;1.90;1.50;;;24.40;61.20;;;;;;4990455;28;20810;-65
2021/07/29 10:34:34;;;;;;;1.90;1.23;;;24.30;61.10;;;;;;4987505;28;20391;-67
2021/07/29 10:37:00;;;;;;;1.97;1.43;;;24.30;61.10;;;;;;5023283;28;20499;-64
2021/07/29 10:39:27;;;;;;;2.38;1.60;;;24.40;61.10;;;;;;4993941;28;21497;-63
2021/07/29 10:42:01;;;;;;;1.70;1.33;;;24.30;61.10;;;;;;5001515;28;20511;-65
2021/07/29 10:44:35;;;;;;;1.98;1.40;;;24.30;61.10;;;;;;4985478;28;20389;-63
2021/07/29 10:47:03;;;;;;;1.88;1.42;;;24.40;61.20;;;;;;4993399;28;20388;-66
2021/07/29 10:49:49;;;;;;;2.13;1.60;;;24.40;61.20;;;;;;4995784;28;20394;-63
2021/07/29 10:52:16;;;;;;;2.20;1.60;;;24.40;61.20;;;;;;4992340;28;20879;-62
2021/07/29 10:54:43;;;;;;;1.75;1.33;;;24.40;61.20;;;;;;4987964;28;20827;-67
2021/07/29 10:57:11;;;;;;;1.70;1.43;;;24.40;61.20;;;;;;5018015;28;20397;-66
2021/07/29 10:59:37;;;;;;;1.90;1.30;;;24.40;61.20;;;;;;4992453;28;20766;-68
2021/07/29 11:02:14;;;;;;;1.83;1.42;;;24.40;61.20;;;;;;4995107;28;20602;-64
2021/07/29 11:04:59;;;;;;;2.00;1.60;;;24.40;61.20;;;;;;4990295;28;20400;-67
2021/07/29 11:07:28;;;;;;;2.00;1.60;;;24.40;61.20;;;;;;4988469;28;20506;-64
2021/07/29 11:10:03;;;;;;;2.00;1.60;;;24.40;61.20;;;;;;4990268;28;20436;-67
2021/07/29 11:12:30;;;;;;;1.95;1.50;;;24.40;61.20;;;;;;4991295;28;20775;-67
2021/07/29 11:15:01;;;;;;;1.90;1.45;;;24.40;61.20;;;;;;4993716;28;20395;-63
2021/07/29 11:17:27;;;;;;;2.03;1.63;;;24.40;61.20;;;;;;4991096;28;20840;-66
2021/07/29 11:19:53;;;;;;;2.20;1.65;;;24.40;61.10;;;;;;4987668;28;20759;-68
2021/07/29 11:22:19;;;;;;;2.10;1.60;;;24.40;61.10;;;;;;4986711;28;20429;-66
2021/07/29 11:24:44;;;;;;;2.10;1.50;;;24.40;61.10;;;;;;4988136;28;20395;-66
2021/07/29 11:27:13;;;;;;;2.33;1.58;;;24.40;61.20;;;;;;4992294;28;20424;-67
2021/07/29 11:29:52;;;;;;;2.03;1.60;;;24.40;61.20;;;;;;4987320;28;20490;-63
2021/07/29 11:32:21;;;;;;;2.20;1.30;;;24.50;61.20;;;;;;4994283;28;20428;-63
2021/07/29 11:34:55;;;;;;;2.03;1.42;;;24.40;61.10;;;;;;4986152;28;20394;-64
2021/07/29 11:37:21;;;;;;;1.98;1.50;;;24.40;61.20;;;;;;4989893;28;20402;-64
2021/07/29 11:39:47;;;;;;;2.15;1.58;;;24.50;61.20;;;;;;4984486;28;20390;-65
2021/07/29 11:42:13;;;;;;;1.98;1.67;;;24.50;61.10;;;;;;4990164;28;20426;-65
2021/07/29 11:44:49;;;;;;;1.97;1.57;;;24.50;61.10;;;;;;4989651;28;20829;-67
2021/07/29 11:47:15;;;;;;;2.15;1.60;;;24.50;61.10;;;;;;4991674;28;20951;-67
2021/07/29 11:49:48;;;;;;;2.20;1.40;;;24.50;61.10;;;;;;4988549;28;20410;-65
2021/07/29 11:52:16;;;;;;;2.08;1.58;;;24.50;61.20;;;;;;4987899;28;20394;-62
2021/07/29 11:54:42;;;;;;;2.00;1.70;;;24.50;61.20;;;;;;4995146;28;20397;-67
2021/07/29 11:57:09;;;;;;;1.80;1.65;;;24.50;61.20;;;;;;4991592;28;20394;-66
2021/07/29 11:59:35;;;;;;;2.28;1.73;;;24.50;61.20;;;;;;5014754;28;20443;-66
2021/07/29 12:02:03;;;;;;;2.05;1.75;;;24.50;61.10;;;;;;4987294;28;20421;-67
2021/07/29 12:04:32;;;;;;;2.43;1.70;;;24.50;61.10;;;;;;4991584;28;20387;-66
2021/07/29 12:06:59;;;;;;;3.42;1.40;;;24.60;61.20;;;;;;4990156;28;20405;-68
2021/07/29 12:09:25;;;;;;;2.58;1.70;;;24.60;61.20;;;;;;4987058;28;20869;-63
2021/07/29 12:11:52;;;;;;;2.20;1.60;;;24.60;61.20;;;;;;4991032;28;20402;-67
2021/07/29 12:14:18;;;;;;;2.30;1.80;;;24.60;61.10;;;;;;4989373;28;20403;-69
2021/07/29 12:16:49;;;;;;;2.30;1.80;;;24.60;61.10;;;;;;4990986;28;20382;-64
2021/07/29 12:19:16;;;;;;;2.50;1.77;;;24.60;61.20;;;;;;4987776;28;20442;-66
2021/07/29 12:21:43;;;;;;;2.00;1.70;;;24.60;61.10;;;;;;4989872;28;20926;-68
2021/07/29 12:24:09;;;;;;;3.78;1.70;;;24.60;61.20;;;;;;4996790;28;20450;-67
2021/07/29 12:26:35;;;;;;;2.40;1.50;;;24.60;61.00;;;;;;4991090;28;20485;-64
2021/07/29 12:29:00;;;;;;;2.43;1.70;;;24.60;61.10;;;;;;4986477;28;20743;-67
2021/07/29 12:31:28;;;;;;;1.90;1.60;;;24.60;61.00;;;;;;4989423;28;20875;-67
2021/07/29 12:33:59;;;;;;;2.30;1.63;;;24.60;61.00;;;;;;4994268;28;20738;-68
2021/07/29 12:36:44;;;;;;;2.90;1.70;;;24.60;61.00;;;;;;4987880;28;20389;-67
2021/07/29 12:39:11;;;;;;;2.33;1.60;;;24.60;61.10;;;;;;4989407;28;20407;-67
2021/07/29 12:41:38;;;;;;;2.20;1.70;;;24.70;61.00;;;;;;4989042;28;20418;-65
2021/07/29 12:44:14;;;;;;;2.00;1.70;;;24.70;61.00;;;;;;4983195;28;20512;-64
2021/07/29 12:46:41;;;;;;;2.10;1.60;;;24.70;61.00;;;;;;4991440;28;20867;-63
2021/07/29 12:49:07;;;;;;;2.10;1.75;;;24.70;61.00;;;;;;4991803;28;20415;-66
2021/07/29 12:51:45;;;;;;;2.20;2.00;;;24.70;61.00;;;;;;4998465;28;20396;-67